Time,TemperatureF,DewpointF,PressureIn,WindDirection,WindDirectionDegrees,WindSpeedMPH,WindSpeedGustMPH,Humidity,HourlyPrecipIn,Conditions,Clouds,dailyrainin,SoftwareType,DateUTC
2013-09-22 00:02:00,53.8,37.0,29.66,SSE,167,3.0,6.0,53,0.00,,,0.00,meteohub,2013-09-22 06:02:00,
2013-09-22 00:07:00,53.8,37.6,29.66,SSE,167,0.0,6.0,54,0.00,,,0.00,meteohub,2013-09-22 06:07:00,
2013-09-22 00:12:00,53.6,37.4,29.66,SSE,151,0.0,6.0,54,0.00,,,0.00,meteohub,2013-09-22 06:12:00,
2013-09-22 00:17:00,53.2,37.4,29.66,NNE,25,1.0,6.0,55,0.00,,,0.00,meteohub,2013-09-22 06:17:00,
2013-09-22 00:22:00,52.0,37.6,29.66,NNW,327,0.0,6.0,58,0.00,,,0.00,meteohub,2013-09-22 06:22:00,
2013-09-22 00:27:00,50.7,37.4,29.66,NW,318,0.0,6.0,60,0.00,,,0.00,meteohub,2013-09-22 06:27:00,
2013-09-22 00:32:00,50.5,37.2,29.66,WNW,297,2.0,6.0,60,0.00,,,0.00,meteohub,2013-09-22 06:32:00,
2013-09-22 00:37:00,51.3,37.4,29.66,WNW,283,2.0,4.0,59,0.00,,,0.00,meteohub,2013-09-22 06:37:00,
2013-09-22 00:42:00,52.0,37.2,29.66,WNW,300,1.0,4.0,57,0.00,,,0.00,meteohub,2013-09-22 06:42:00,
2013-09-22 00:47:00,51.8,37.0,29.66,NW,320,1.0,4.0,57,0.00,,,0.00,meteohub,2013-09-22 06:47:00,
2013-09-22 00:52:00,51.4,37.2,29.65,NNW,330,2.0,5.0,58,0.00,,,0.00,meteohub,2013-09-22 06:52:00,
2013-09-22 00:57:00,51.1,37.2,29.65,WNW,289,2.0,5.0,59,0.00,,,0.00,meteohub,2013-09-22 06:57:00,
2013-09-22 01:02:00,51.4,37.2,29.65,NNW,328,2.0,4.0,58,0.00,,,0.00,meteohub,2013-09-22 07:02:00,
2013-09-22 01:07:00,51.4,36.7,29.65,WNW,302,3.0,4.0,57,0.00,,,0.00,meteohub,2013-09-22 07:07:00,
2013-09-22 01:12:00,51.6,36.9,29.65,NNW,329,3.0,4.0,57,0.00,,,0.00,meteohub,2013-09-22 07:12:00,
2013-09-22 01:17:00,51.4,36.7,29.65,NNW,330,3.0,4.0,57,0.00,,,0.00,meteohub,2013-09-22 07:17:00,
2013-09-22 01:22:00,51.3,37.0,29.65,NW,326,2.0,6.0,58,0.00,,,0.00,meteohub,2013-09-22 07:22:00,
2013-09-22 01:27:00,51.1,36.9,29.65,NW,322,1.0,6.0,58,0.00,,,0.00,meteohub,2013-09-22 07:27:00,
2013-09-22 01:32:00,51.1,36.9,29.65,NW,313,1.0,6.0,58,0.00,,,0.00,meteohub,2013-09-22 07:32:00,
2013-09-22 01:37:00,50.7,36.9,29.65,North,354,3.0,4.0,59,0.00,,,0.00,meteohub,2013-09-22 07:37:00,
2013-09-22 01:42:00,50.4,37.0,29.65,NW,325,2.0,5.0,60,0.00,,,0.00,meteohub,2013-09-22 07:42:00,
2013-09-22 01:47:00,50.2,36.9,29.65,NW,315,4.0,5.0,60,0.00,,,0.00,meteohub,2013-09-22 07:47:00,
2013-09-22 01:52:00,50.4,36.5,29.65,NW,326,5.0,7.0,59,0.00,,,0.00,meteohub,2013-09-22 07:52:00,
2013-09-22 01:57:00,50.5,36.7,29.65,NNW,328,6.0,7.0,59,0.00,,,0.00,meteohub,2013-09-22 07:57:00,
2013-09-22 02:02:00,50.4,37.0,29.65,NNW,339,4.0,7.0,60,0.00,,,0.00,meteohub,2013-09-22 08:02:00,
2013-09-22 02:07:00,49.8,36.9,29.65,NW,325,5.0,7.0,61,0.00,,,0.00,meteohub,2013-09-22 08:07:00,
2013-09-22 02:12:00,49.5,37.0,29.65,NNW,338,4.0,7.0,62,0.00,,,0.00,meteohub,2013-09-22 08:12:00,
2013-09-22 02:17:00,48.9,36.9,29.64,NW,324,4.0,6.0,63,0.00,,,0.00,meteohub,2013-09-22 08:17:00,
2013-09-22 02:22:00,48.7,37.0,29.64,NW,316,4.0,6.0,64,0.00,,,0.00,meteohub,2013-09-22 08:22:00,
2013-09-22 02:27:00,48.6,36.9,29.64,WNW,296,3.0,6.0,64,0.00,,,0.00,meteohub,2013-09-22 08:27:00,
2013-09-22 02:32:00,48.9,36.9,29.64,NW,307,3.0,5.0,63,0.00,,,0.00,meteohub,2013-09-22 08:32:00,
2013-09-22 02:37:00,49.6,36.7,29.64,NW,318,3.0,5.0,61,0.00,,,0.00,meteohub,2013-09-22 08:37:00,
2013-09-22 02:42:00,50.2,36.9,29.64,NW,312,2.0,5.0,60,0.00,,,0.00,meteohub,2013-09-22 08:42:00,
2013-09-22 02:47:00,50.4,36.5,29.64,NW,320,2.0,5.0,59,0.00,,,0.00,meteohub,2013-09-22 08:47:00,
2013-09-22 02:52:00,50.7,36.9,29.64,NW,318,3.0,5.0,59,0.00,,,0.00,meteohub,2013-09-22 08:52:00,
2013-09-22 02:57:00,50.9,36.7,29.64,WNW,301,2.0,6.0,58,0.00,,,0.00,meteohub,2013-09-22 08:57:00,
2013-09-22 03:02:00,50.9,36.7,29.63,WSW,250,1.0,6.0,58,0.00,,,0.00,meteohub,2013-09-22 09:02:00,
2013-09-22 03:07:00,50.7,36.5,29.64,SSE,161,1.0,6.0,58,0.00,,,0.00,meteohub,2013-09-22 09:07:00,
2013-09-22 03:12:00,50.4,36.5,29.63,WNW,294,0.0,4.0,59,0.00,,,0.00,meteohub,2013-09-22 09:12:00,
2013-09-22 03:17:00,49.6,36.3,29.63,NNE,20,5.0,5.0,60,0.00,,,0.00,meteohub,2013-09-22 09:17:00,
2013-09-22 03:22:00,49.3,36.9,29.64,North,349,0.0,6.0,62,0.00,,,0.00,meteohub,2013-09-22 09:22:00,
2013-09-22 03:27:00,48.9,36.5,29.64,WNW,298,1.0,6.0,62,0.00,,,0.00,meteohub,2013-09-22 09:27:00,
2013-09-22 03:32:00,49.3,36.9,29.63,NW,316,1.0,6.0,62,0.00,,,0.00,meteohub,2013-09-22 09:32:00,
2013-09-22 03:37:00,49.8,37.4,29.63,WSW,245,1.0,4.0,62,0.00,,,0.00,meteohub,2013-09-22 09:37:00,
2013-09-22 03:42:00,50.5,36.7,29.64,East,95,1.0,3.0,59,0.00,,,0.00,meteohub,2013-09-22 09:42:00,
2013-09-22 03:47:00,48.4,36.7,29.64,NNE,19,4.0,4.0,64,0.00,,,0.00,meteohub,2013-09-22 09:47:00,
2013-09-22 03:52:00,46.8,36.7,29.64,NNE,14,3.0,6.0,68,0.00,,,0.00,meteohub,2013-09-22 09:52:00,
2013-09-22 03:57:00,45.9,36.7,29.64,NNW,336,0.0,6.0,70,0.00,,,0.00,meteohub,2013-09-22 09:57:00,
2013-09-22 04:02:00,46.0,36.9,29.63,NW,307,1.0,6.0,70,0.00,,,0.00,meteohub,2013-09-22 10:02:00,
2013-09-22 04:07:00,46.9,36.9,29.64,WSW,246,2.0,4.0,68,0.00,,,0.00,meteohub,2013-09-22 10:07:00,
2013-09-22 04:12:00,48.4,37.6,29.64,SSE,159,2.0,4.0,66,0.00,,,0.00,meteohub,2013-09-22 10:12:00,
2013-09-22 04:17:00,49.5,38.1,29.63,SSW,200,1.0,4.0,65,0.00,,,0.00,meteohub,2013-09-22 10:17:00,
2013-09-22 04:22:00,49.8,38.1,29.63,SSE,153,0.0,4.0,64,0.00,,,0.00,meteohub,2013-09-22 10:22:00,
2013-09-22 04:27:00,49.3,37.6,29.63,SSE,153,1.0,4.0,64,0.00,,,0.00,meteohub,2013-09-22 10:27:00,
2013-09-22 04:32:00,47.7,36.9,29.63,NNW,328,1.0,3.0,66,0.00,,,0.00,meteohub,2013-09-22 10:32:00,
2013-09-22 04:37:00,47.5,37.0,29.63,WSW,243,1.0,4.0,67,0.00,,,0.00,meteohub,2013-09-22 10:37:00,
2013-09-22 04:42:00,47.8,37.4,29.63,WSW,257,1.0,4.0,67,0.00,,,0.00,meteohub,2013-09-22 10:42:00,
2013-09-22 04:47:00,48.4,37.9,29.63,NE,34,2.0,3.0,67,0.00,,,0.00,meteohub,2013-09-22 10:47:00,
2013-09-22 04:52:00,47.7,37.2,29.63,East,79,0.0,4.0,67,0.00,,,0.00,meteohub,2013-09-22 10:52:00,
2013-09-22 05:06:00,46.2,37.0,29.64,WNW,296,2.0,4.0,70,0.00,,,0.00,meteohub,2013-09-22 11:06:00,
2013-09-22 05:12:00,47.1,37.4,29.63,WNW,288,0.0,3.0,69,0.00,,,0.00,meteohub,2013-09-22 11:12:00,
2013-09-22 05:17:00,48.0,37.6,29.63,WNW,293,0.0,3.0,67,0.00,,,0.00,meteohub,2013-09-22 11:17:00,
2013-09-22 05:22:00,48.4,37.9,29.62,WNW,293,0.0,2.0,67,0.00,,,0.00,meteohub,2013-09-22 11:22:00,
2013-09-22 05:27:00,48.7,37.6,29.62,NNE,19,3.0,3.0,65,0.00,,,0.00,meteohub,2013-09-22 11:27:00,
2013-09-22 05:32:00,48.4,37.6,29.62,NW,322,0.0,5.0,66,0.00,,,0.00,meteohub,2013-09-22 11:32:00,
2013-09-22 05:37:00,47.7,37.6,29.62,NNW,328,3.0,5.0,68,0.00,,,0.00,meteohub,2013-09-22 11:37:00,
2013-09-22 05:42:00,47.7,37.6,29.63,NNW,331,0.0,5.0,68,0.00,,,0.00,meteohub,2013-09-22 11:42:00,
2013-09-22 05:47:00,47.7,37.9,29.63,NW,323,2.0,3.0,69,0.00,,,0.00,meteohub,2013-09-22 11:47:00,
2013-09-22 05:52:00,47.3,37.6,29.64,NW,322,0.0,3.0,69,0.00,,,0.00,meteohub,2013-09-22 11:52:00,
2013-09-22 05:57:00,46.9,37.2,29.64,WNW,295,3.0,4.0,69,0.00,,,0.00,meteohub,2013-09-22 11:57:00,
2013-09-22 06:02:00,47.5,37.4,29.63,West,263,0.0,4.0,68,0.00,,,0.00,meteohub,2013-09-22 12:02:00,
2013-09-22 06:07:00,48.2,37.8,29.63,West,264,0.0,4.0,67,0.00,,,0.00,meteohub,2013-09-22 12:07:00,
2013-09-22 06:12:00,48.4,37.9,29.63,SW,232,0.0,3.0,67,0.00,,,0.00,meteohub,2013-09-22 12:12:00,
2013-09-22 06:17:00,48.4,37.9,29.63,NW,318,0.0,2.0,67,0.00,,,0.00,meteohub,2013-09-22 12:17:00,
2013-09-22 06:22:00,48.2,38.1,29.63,WNW,301,3.0,3.0,68,0.00,,,0.00,meteohub,2013-09-22 12:22:00,
2013-09-22 06:27:00,48.0,37.6,29.62,WNW,285,1.0,3.0,67,0.00,,,0.00,meteohub,2013-09-22 12:27:00,
2013-09-22 06:32:00,48.4,37.6,29.63,West,274,0.0,3.0,66,0.00,,,0.00,meteohub,2013-09-22 12:32:00,
2013-09-22 06:37:00,48.6,38.1,29.63,West,274,0.0,3.0,67,0.00,,,0.00,meteohub,2013-09-22 12:37:00,
2013-09-22 06:42:00,48.4,37.6,29.63,NW,326,2.0,2.0,66,0.00,,,0.00,meteohub,2013-09-22 12:42:00,
2013-09-22 06:47:00,47.8,37.4,29.63,NNW,340,0.0,2.0,67,0.00,,,0.00,meteohub,2013-09-22 12:47:00,
2013-09-22 06:52:00,46.6,37.4,29.63,NNE,16,2.0,2.0,70,0.00,,,0.00,meteohub,2013-09-22 12:52:00,
2013-09-22 06:57:00,45.3,37.2,29.63,North,354,0.0,4.0,73,0.00,,,0.00,meteohub,2013-09-22 12:57:00,
2013-09-22 07:02:00,45.1,37.4,29.63,NW,319,1.0,4.0,74,0.00,,,0.00,meteohub,2013-09-22 13:02:00,
2013-09-22 07:07:00,45.7,37.6,29.64,WNW,301,1.0,6.0,73,0.00,,,0.00,meteohub,2013-09-22 13:07:00,
2013-09-22 07:12:00,45.5,37.4,29.64,NNW,331,2.0,6.0,73,0.00,,,0.00,meteohub,2013-09-22 13:12:00,
2013-09-22 07:17:00,45.3,37.2,29.64,NNW,333,2.0,6.0,73,0.00,,,0.00,meteohub,2013-09-22 13:17:00,
2013-09-22 07:22:00,45.7,37.2,29.65,NNW,330,3.0,4.0,72,0.00,,,0.00,meteohub,2013-09-22 13:22:00,
2013-09-22 07:27:00,46.0,37.2,29.64,NW,326,4.0,5.0,71,0.00,,,0.00,meteohub,2013-09-22 13:27:00,
2013-09-22 07:32:00,46.9,37.6,29.64,North,1,4.0,5.0,70,0.00,,,0.00,meteohub,2013-09-22 13:32:00,
2013-09-22 07:37:00,47.1,37.8,29.65,NNE,14,4.0,4.0,70,0.00,,,0.00,meteohub,2013-09-22 13:37:00,
2013-09-22 07:42:00,46.9,38.1,29.64,NNW,336,3.0,4.0,71,0.00,,,0.00,meteohub,2013-09-22 13:42:00,
2013-09-22 07:47:00,46.9,38.1,29.64,NW,307,6.0,6.0,71,0.00,,,0.00,meteohub,2013-09-22 13:47:00,
2013-09-22 07:52:00,46.8,37.9,29.64,NW,324,3.0,7.0,71,0.00,,,0.00,meteohub,2013-09-22 13:52:00,
2013-09-22 07:57:00,47.1,38.5,29.64,NNW,328,2.0,7.0,72,0.00,,,0.00,meteohub,2013-09-22 13:57:00,
2013-09-22 08:02:00,47.5,38.5,29.64,NW,320,4.0,7.0,71,0.00,,,0.00,meteohub,2013-09-22 14:02:00,
2013-09-22 08:07:00,47.7,38.7,29.64,NNW,329,2.0,6.0,71,0.00,,,0.00,meteohub,2013-09-22 14:07:00,
2013-09-22 08:12:00,47.7,39.0,29.64,NW,325,2.0,6.0,72,0.00,,,0.00,meteohub,2013-09-22 14:12:00,
2013-09-22 08:17:00,47.7,39.4,29.64,WNW,303,2.0,5.0,73,0.00,,,0.00,meteohub,2013-09-22 14:17:00,
2013-09-22 08:22:00,47.8,39.2,29.64,NW,312,1.0,4.0,72,0.00,,,0.00,meteohub,2013-09-22 14:22:00,
2013-09-22 08:27:00,48.4,39.4,29.64,WNW,290,1.0,4.0,71,0.00,,,0.00,meteohub,2013-09-22 14:27:00,
2013-09-22 08:32:00,48.7,39.7,29.63,NW,316,0.0,4.0,71,0.00,,,0.00,meteohub,2013-09-22 14:32:00,
2013-09-22 08:37:00,49.1,39.7,29.63,NW,315,0.0,3.0,70,0.00,,,0.00,meteohub,2013-09-22 14:37:00,
2013-09-22 08:42:00,49.3,39.9,29.63,NW,314,0.0,1.0,70,0.00,,,0.00,meteohub,2013-09-22 14:42:00,
2013-09-22 08:47:00,49.5,39.7,29.63,NW,314,0.0,0.0,69,0.00,,,0.00,meteohub,2013-09-22 14:47:00,
2013-09-22 08:52:00,49.5,40.1,29.63,NW,314,0.0,0.0,70,0.00,,,0.00,meteohub,2013-09-22 14:52:00,
2013-09-22 08:57:00,49.5,40.1,29.63,NW,316,0.0,0.0,70,0.00,,,0.00,meteohub,2013-09-22 14:57:00,
2013-09-22 09:02:00,49.5,39.4,29.63,NW,316,0.0,0.0,68,0.00,,,0.00,meteohub,2013-09-22 15:02:00,
2013-09-22 09:07:00,49.5,40.1,29.63,ENE,69,0.0,0.0,70,0.00,,,0.00,meteohub,2013-09-22 15:07:00,
2013-09-22 09:12:00,49.5,40.8,29.63,ENE,69,0.0,0.0,72,0.00,,,0.00,meteohub,2013-09-22 15:12:00,
2013-09-22 09:17:00,49.5,39.7,29.63,ENE,70,0.0,0.0,69,0.00,,,0.00,meteohub,2013-09-22 15:17:00,
2013-09-22 09:22:00,49.5,40.1,29.62,ENE,70,0.0,0.0,70,0.00,,,0.00,meteohub,2013-09-22 15:22:00,
2013-09-22 09:27:00,49.6,40.3,29.62,ENE,68,0.0,0.0,70,0.00,,,0.00,meteohub,2013-09-22 15:27:00,
2013-09-22 09:32:00,49.8,41.2,29.62,ENE,68,0.0,0.0,72,0.00,,,0.00,meteohub,2013-09-22 15:32:00,
2013-09-22 09:37:00,50.4,41.7,29.62,NE,39,0.0,0.0,72,0.00,,,0.00,meteohub,2013-09-22 15:37:00,
2013-09-22 09:42:00,50.7,41.7,29.62,SE,129,2.0,2.0,71,0.00,,,0.00,meteohub,2013-09-22 15:42:00,
2013-09-22 09:47:00,51.3,42.3,29.62,ENE,69,1.0,4.0,71,0.00,,,0.00,meteohub,2013-09-22 15:47:00,
2013-09-22 09:52:00,51.6,41.7,29.62,NW,314,5.0,5.0,69,0.00,,,0.00,meteohub,2013-09-22 15:52:00,
2013-09-22 09:57:00,51.3,42.6,29.62,North,11,4.0,5.0,72,0.00,,,0.00,meteohub,2013-09-22 15:57:00,
2013-09-22 10:02:00,51.4,43.2,29.62,NNW,340,3.0,5.0,73,0.00,,,0.00,meteohub,2013-09-22 16:02:00,
2013-09-22 10:07:00,51.6,42.4,29.62,NNW,336,3.0,6.0,71,0.00,,,0.00,meteohub,2013-09-22 16:07:00,
2013-09-22 10:12:00,52.2,43.0,29.61,NW,325,4.0,6.0,71,0.00,,,0.00,meteohub,2013-09-22 16:12:00,
2013-09-22 10:17:00,53.1,44.2,29.61,West,264,1.0,8.0,72,0.00,,,0.00,meteohub,2013-09-22 16:17:00,
2013-09-22 10:22:00,53.1,43.2,29.61,East,98,0.0,8.0,69,0.00,,,0.00,meteohub,2013-09-22 16:22:00,
2013-09-22 10:27:00,53.1,43.5,29.61,NE,45,2.0,8.0,70,0.00,,,0.00,meteohub,2013-09-22 16:27:00,
2013-09-22 10:32:00,53.2,43.7,29.61,NNE,15,2.0,5.0,70,0.00,,,0.00,meteohub,2013-09-22 16:32:00,
2013-09-22 10:37:00,53.8,43.9,29.61,North,353,2.0,6.0,69,0.00,,,0.00,meteohub,2013-09-22 16:37:00,
2013-09-22 10:42:00,54.7,44.2,29.60,NW,316,0.0,6.0,68,0.00,,,0.00,meteohub,2013-09-22 16:42:00,
2013-09-22 10:48:00,55.2,44.8,29.60,NE,41,0.0,4.0,68,0.00,,,0.00,meteohub,2013-09-22 16:48:00,
2013-09-22 10:53:00,55.2,44.4,29.60,NNE,25,4.0,4.0,67,0.00,,,0.00,meteohub,2013-09-22 16:53:00,
2013-09-22 10:58:00,54.7,44.8,29.60,North,351,1.0,6.0,69,0.00,,,0.00,meteohub,2013-09-22 16:58:00,
2013-09-22 11:03:00,55.0,44.6,29.60,NW,312,0.0,6.0,68,0.00,,,0.00,meteohub,2013-09-22 17:03:00,
2013-09-22 11:08:00,55.4,45.0,29.59,NW,318,0.0,6.0,68,0.00,,,0.00,meteohub,2013-09-22 17:08:00,
2013-09-22 11:13:00,55.6,44.8,29.59,South,187,1.0,3.0,67,0.00,,,0.00,meteohub,2013-09-22 17:13:00,
2013-09-22 11:18:00,55.9,45.1,29.59,East,99,3.0,3.0,67,0.00,,,0.00,meteohub,2013-09-22 17:18:00,
2013-09-22 11:23:00,56.1,45.3,29.58,SE,143,10.0,10.0,67,0.00,,,0.00,meteohub,2013-09-22 17:23:00,
2013-09-22 11:28:00,55.0,44.6,29.58,SSE,152,10.0,15.0,68,0.00,,,0.00,meteohub,2013-09-22 17:28:00,
2013-09-22 11:33:00,55.2,45.1,29.57,SE,131,10.0,15.0,69,0.00,,,0.00,meteohub,2013-09-22 17:33:00,
2013-09-22 11:38:00,55.6,44.4,29.56,SSE,164,11.0,15.0,66,0.00,,,0.00,meteohub,2013-09-22 17:38:00,
2013-09-22 11:44:00,55.4,44.6,29.56,SE,146,14.0,15.0,67,0.00,,,0.00,meteohub,2013-09-22 17:44:00,
2013-09-22 11:49:00,55.8,44.6,29.56,SSW,203,4.0,14.0,66,0.00,,,0.00,meteohub,2013-09-22 17:49:00,
2013-09-22 11:54:00,56.7,45.5,29.56,East,96,6.0,15.0,66,0.00,,,0.00,meteohub,2013-09-22 17:54:00,
2013-09-22 11:59:00,56.8,45.1,29.56,SSE,153,9.0,15.0,65,0.00,,,0.00,meteohub,2013-09-22 17:59:00,
2013-09-22 12:04:00,56.7,44.6,29.56,SE,124,5.0,15.0,64,0.00,,,0.00,meteohub,2013-09-22 18:04:00,
2013-09-22 12:09:00,55.9,43.2,29.55,South,184,6.0,16.0,62,0.00,,,0.00,meteohub,2013-09-22 18:09:00,
2013-09-22 12:14:00,55.9,44.4,29.55,SSW,202,7.0,16.0,65,0.00,,,0.00,meteohub,2013-09-22 18:14:00,
2013-09-22 12:19:00,55.8,43.7,29.55,SSE,152,5.0,16.0,64,0.00,,,0.00,meteohub,2013-09-22 18:19:00,
2013-09-22 12:24:00,55.8,43.3,29.54,SSE,160,7.0,16.0,63,0.00,,,0.00,meteohub,2013-09-22 18:24:00,
2013-09-22 12:29:00,56.3,43.5,29.54,SSE,158,9.0,11.0,62,0.00,,,0.00,meteohub,2013-09-22 18:29:00,
2013-09-22 12:34:00,57.2,44.2,29.54,SE,143,3.0,11.0,62,0.00,,,0.00,meteohub,2013-09-22 18:34:00,
2013-09-22 12:39:00,58.5,43.7,29.53,SSE,164,5.0,11.0,58,0.00,,,0.00,meteohub,2013-09-22 18:39:00,
2013-09-22 12:44:00,59.4,44.1,29.52,South,184,6.0,13.0,57,0.00,,,0.00,meteohub,2013-09-22 18:44:00,
2013-09-22 12:49:00,59.5,43.9,29.52,South,184,7.0,13.0,56,0.00,,,0.00,meteohub,2013-09-22 18:49:00,
2013-09-22 12:55:00,60.4,43.7,29.52,NNW,343,4.0,13.0,54,0.00,,,0.00,meteohub,2013-09-22 18:55:00,
2013-09-22 13:00:00,59.9,43.7,29.51,SE,139,5.0,13.0,55,0.00,,,0.00,meteohub,2013-09-22 19:00:00,
2013-09-22 13:05:00,59.5,42.8,29.51,South,187,6.0,13.0,54,0.00,,,0.00,meteohub,2013-09-22 19:05:00,
2013-09-22 13:10:00,58.8,43.2,29.51,SSW,211,11.0,15.0,56,0.00,,,0.00,meteohub,2013-09-22 19:10:00,
2013-09-22 13:15:00,58.5,42.8,29.50,SE,141,5.0,15.0,56,0.00,,,0.00,meteohub,2013-09-22 19:15:00,
2013-09-22 13:20:00,58.3,42.6,29.50,SSW,197,10.0,15.0,56,0.00,,,0.00,meteohub,2013-09-22 19:20:00,
2013-09-22 13:25:00,58.3,42.6,29.50,SSW,198,5.0,15.0,56,0.00,,,0.00,meteohub,2013-09-22 19:25:00,
2013-09-22 13:30:00,57.7,43.9,29.51,NW,310,7.0,15.0,60,0.00,,,0.00,meteohub,2013-09-22 19:30:00,
2013-09-22 13:35:00,57.0,44.1,29.51,SSW,194,5.0,18.0,62,0.00,,,0.00,meteohub,2013-09-22 19:35:00,
2013-09-22 13:40:00,54.7,46.6,29.51,SSE,160,5.0,18.0,74,0.00,,,0.00,meteohub,2013-09-22 19:40:00,
2013-09-22 13:45:00,53.1,47.1,29.50,SSE,167,6.0,18.0,80,0.00,,,0.00,meteohub,2013-09-22 19:45:00,
2013-09-22 13:50:00,52.5,46.9,29.49,SSW,200,4.0,18.0,81,0.00,,,0.00,meteohub,2013-09-22 19:50:00,
2013-09-22 13:55:00,52.7,47.3,29.49,WSW,244,1.0,9.0,82,0.00,,,0.00,meteohub,2013-09-22 19:55:00,
2013-09-22 14:00:00,53.1,46.0,29.49,SW,222,4.0,9.0,77,0.00,,,0.00,meteohub,2013-09-22 20:00:00,
2013-09-22 14:05:00,53.2,46.9,29.48,SSW,203,5.0,9.0,79,0.00,,,0.00,meteohub,2013-09-22 20:05:00,
2013-09-22 14:11:00,53.6,46.9,29.48,SW,226,3.0,9.0,78,0.00,,,0.00,meteohub,2013-09-22 20:11:00,
2013-09-22 14:16:00,53.8,46.8,29.48,ESE,116,9.0,9.0,77,0.00,,,0.00,meteohub,2013-09-22 20:16:00,
2013-09-22 14:21:00,53.8,46.4,29.48,SSW,205,5.0,11.0,76,0.00,,,0.00,meteohub,2013-09-22 20:21:00,
2013-09-22 14:26:00,54.0,46.2,29.47,SSE,167,3.0,11.0,75,0.00,,,0.00,meteohub,2013-09-22 20:26:00,
2013-09-22 14:31:00,54.1,46.0,29.46,SSE,167,6.0,11.0,74,0.00,,,0.00,meteohub,2013-09-22 20:31:00,
2013-09-22 14:36:00,54.1,46.0,29.47,SW,236,5.0,9.0,74,0.00,,,0.00,meteohub,2013-09-22 20:36:00,
2013-09-22 14:41:00,54.3,46.6,29.47,SW,217,7.0,11.0,75,0.00,,,0.00,meteohub,2013-09-22 20:41:00,
2013-09-22 14:46:00,54.3,46.6,29.47,South,174,7.0,11.0,75,0.00,,,0.00,meteohub,2013-09-22 20:46:00,
2013-09-22 14:51:00,54.3,46.6,29.47,SSE,163,3.0,11.0,75,0.00,,,0.00,meteohub,2013-09-22 20:51:00,
2013-09-22 14:56:00,54.1,46.8,29.46,SSW,193,2.0,10.0,76,0.00,,,0.00,meteohub,2013-09-22 20:56:00,
2013-09-22 15:01:00,54.1,46.0,29.46,WSW,253,3.0,10.0,74,0.00,,,0.00,meteohub,2013-09-22 21:01:00,
2013-09-22 15:06:00,53.8,45.7,29.47,SSW,203,3.0,10.0,74,0.01,,,0.00,meteohub,2013-09-22 21:06:00,
2013-09-22 15:11:00,53.4,46.4,29.47,SW,221,5.0,9.0,77,0.01,,,0.01,meteohub,2013-09-22 21:11:00,
2013-09-22 15:16:00,52.7,46.8,29.48,SW,235,5.0,9.0,80,0.02,,,0.02,meteohub,2013-09-22 21:16:00,
2013-09-22 15:22:00,52.0,46.6,29.49,SW,217,6.0,9.0,82,0.03,,,0.03,meteohub,2013-09-22 21:22:00,
2013-09-22 15:27:00,51.4,45.5,29.49,SE,138,3.0,14.0,80,0.04,,,0.04,meteohub,2013-09-22 21:27:00,
2013-09-22 15:32:00,50.4,44.4,29.49,SW,224,9.0,19.0,80,0.06,,,0.06,meteohub,2013-09-22 21:32:00,
2013-09-22 15:37:00,49.3,43.7,29.49,SW,214,6.0,19.0,81,0.07,,,0.07,meteohub,2013-09-22 21:37:00,
2013-09-22 15:42:00,48.6,43.7,29.49,SW,214,8.0,19.0,83,0.09,,,0.09,meteohub,2013-09-22 21:42:00,
2013-09-22 15:47:00,48.0,43.3,29.49,SW,221,5.0,14.0,84,0.11,,,0.11,meteohub,2013-09-22 21:47:00,
2013-09-22 15:52:00,47.7,42.8,29.49,ESE,104,5.0,15.0,83,0.11,,,0.11,meteohub,2013-09-22 21:52:00,
2013-09-22 15:57:00,47.1,42.8,29.49,SW,233,5.0,15.0,85,0.13,,,0.13,meteohub,2013-09-22 21:57:00,
2013-09-22 16:02:00,46.8,42.8,29.49,SW,219,9.0,15.0,86,0.15,,,0.15,meteohub,2013-09-22 22:02:00,
2013-09-22 16:07:00,46.8,42.8,29.48,SSE,152,4.0,12.0,86,0.15,,,0.16,meteohub,2013-09-22 22:07:00,
2013-09-22 16:12:00,46.6,43.0,29.47,SE,129,6.0,10.0,87,0.16,,,0.17,meteohub,2013-09-22 22:12:00,
2013-09-22 16:17:00,46.0,43.0,29.48,SE,139,7.0,10.0,89,0.15,,,0.17,meteohub,2013-09-22 22:17:00,
2013-09-22 16:22:00,45.9,42.8,29.49,SE,145,5.0,9.0,89,0.14,,,0.17,meteohub,2013-09-22 22:22:00,
2013-09-22 16:28:00,45.7,43.0,29.49,SE,132,9.0,9.0,90,0.12,,,0.17,meteohub,2013-09-22 22:28:00,
2013-09-22 16:33:00,45.7,43.2,29.50,SSW,200,4.0,10.0,91,0.10,,,0.17,meteohub,2013-09-22 22:33:00,
2013-09-22 16:38:00,45.7,43.2,29.51,ESE,117,2.0,10.0,91,0.08,,,0.17,meteohub,2013-09-22 22:38:00,
2013-09-22 16:43:00,45.7,43.2,29.50,SW,221,1.0,10.0,91,0.07,,,0.17,meteohub,2013-09-22 22:43:00,
2013-09-22 16:48:00,45.7,43.2,29.51,SW,218,3.0,7.0,91,0.06,,,0.17,meteohub,2013-09-22 22:48:00,
2013-09-22 16:53:00,45.7,43.2,29.52,SW,235,2.0,5.0,91,0.05,,,0.17,meteohub,2013-09-22 22:53:00,
2013-09-22 16:58:00,45.5,43.0,29.51,SW,235,0.0,7.0,91,0.03,,,0.17,meteohub,2013-09-22 22:58:00,
2013-09-22 17:03:00,45.3,43.2,29.50,WSW,255,0.0,7.0,92,0.04,,,0.19,meteohub,2013-09-22 23:03:00,
2013-09-22 17:08:00,45.1,42.6,29.51,West,262,2.0,7.0,91,0.03,,,0.19,meteohub,2013-09-22 23:08:00,
2013-09-22 17:13:00,45.1,43.0,29.50,NW,326,0.0,4.0,92,0.02,,,0.19,meteohub,2013-09-22 23:13:00,
2013-09-22 17:18:00,45.0,42.8,29.49,West,280,1.0,4.0,92,0.03,,,0.20,meteohub,2013-09-22 23:18:00,
2013-09-22 17:24:00,45.0,43.0,29.49,NNW,327,3.0,4.0,93,0.03,,,0.20,meteohub,2013-09-22 23:24:00,
2013-09-22 17:29:00,45.0,43.0,29.50,SW,216,2.0,6.0,93,0.03,,,0.20,meteohub,2013-09-22 23:29:00,
2013-09-22 17:34:00,45.0,43.0,29.50,South,176,0.0,6.0,93,0.03,,,0.20,meteohub,2013-09-22 23:34:00,
2013-09-22 17:39:00,45.1,43.5,29.50,West,266,1.0,6.0,94,0.03,,,0.20,meteohub,2013-09-22 23:39:00,
2013-09-22 17:44:00,45.1,43.2,29.50,WSW,253,1.0,5.0,93,0.04,,,0.21,meteohub,2013-09-22 23:44:00,
2013-09-22 17:49:00,45.1,43.2,29.51,SE,136,1.0,5.0,93,0.04,,,0.21,meteohub,2013-09-22 23:49:00,
2013-09-22 17:55:00,45.3,43.3,29.50,SSW,209,1.0,2.0,93,0.06,,,0.23,meteohub,2013-09-22 23:55:00,
2013-09-22 18:00:00,45.3,43.3,29.50,SE,140,1.0,3.0,93,0.06,,,0.23,meteohub,2013-09-23 00:00:00,
2013-09-22 18:05:00,45.3,43.3,29.49,SSE,160,1.0,3.0,93,0.04,,,0.23,meteohub,2013-09-23 00:05:00,
2013-09-22 18:10:00,45.3,43.7,29.49,South,169,2.0,3.0,94,0.07,,,0.03,meteohub,2013-09-23 00:10:00,
2013-09-22 18:15:00,45.1,43.2,29.49,SE,144,0.0,3.0,93,0.07,,,0.03,meteohub,2013-09-23 00:15:00,
2013-09-22 18:20:00,45.1,43.5,29.48,SE,144,0.0,2.0,94,0.07,,,0.04,meteohub,2013-09-23 00:20:00,
2013-09-22 18:25:00,45.1,43.5,29.48,SSW,212,0.0,2.0,94,0.08,,,0.04,meteohub,2013-09-23 00:25:00,
2013-09-22 18:30:00,45.0,43.3,29.48,SSW,203,0.0,1.0,94,0.08,,,0.04,meteohub,2013-09-23 00:30:00,
2013-09-22 18:35:00,45.0,43.3,29.47,SSW,203,0.0,0.0,94,0.07,,,0.04,meteohub,2013-09-23 00:35:00,
2013-09-22 18:40:00,45.0,43.3,29.48,SSW,203,0.0,0.0,94,0.07,,,0.04,meteohub,2013-09-23 00:40:00,
2013-09-22 18:45:00,45.0,43.3,29.48,West,278,0.0,0.0,94,0.06,,,0.04,meteohub,2013-09-23 00:45:00,
2013-09-22 18:50:00,44.8,43.5,29.48,SW,228,0.0,0.0,95,0.05,,,0.04,meteohub,2013-09-23 00:50:00,
2013-09-22 18:55:00,45.0,43.7,29.47,WNW,288,0.0,0.0,95,0.05,,,0.04,meteohub,2013-09-23 00:55:00,
2013-09-22 19:01:00,45.0,43.7,29.47,WNW,287,0.0,1.0,95,0.04,,,0.05,meteohub,2013-09-23 01:01:00,
2013-09-22 19:06:00,45.0,43.7,29.47,WNW,287,0.0,1.0,95,0.03,,,0.05,meteohub,2013-09-23 01:06:00,
2013-09-22 19:11:00,45.0,43.7,29.47,WNW,287,0.0,0.0,95,0.02,,,0.05,meteohub,2013-09-23 01:11:00,
2013-09-22 19:16:00,44.8,43.5,29.46,WNW,287,0.0,0.0,95,0.02,,,0.05,meteohub,2013-09-23 01:16:00,
2013-09-22 19:21:00,45.0,43.7,29.45,WNW,289,0.0,0.0,95,0.01,,,0.05,meteohub,2013-09-23 01:21:00,
2013-09-22 19:26:00,45.0,43.7,29.44,NW,324,7.0,7.0,95,0.01,,,0.05,meteohub,2013-09-23 01:26:00,
2013-09-22 19:31:00,45.0,43.7,29.44,NW,319,4.0,7.0,95,0.01,,,0.05,meteohub,2013-09-23 01:31:00,
2013-09-22 19:36:00,45.0,43.7,29.44,NNW,329,3.0,7.0,95,0.01,,,0.05,meteohub,2013-09-23 01:36:00,
2013-09-22 19:41:00,45.0,43.7,29.44,NNW,336,5.0,7.0,95,0.01,,,0.05,meteohub,2013-09-23 01:41:00,
2013-09-22 19:46:00,45.0,43.3,29.44,NNW,328,5.0,7.0,94,0.01,,,0.05,meteohub,2013-09-23 01:46:00,
2013-09-22 19:51:00,44.8,42.8,29.44,NNW,335,2.0,7.0,93,0.01,,,0.05,meteohub,2013-09-23 01:51:00,
2013-09-22 19:57:00,44.4,42.4,29.44,NNW,332,3.0,7.0,93,0.01,,,0.05,meteohub,2013-09-23 01:57:00,
2013-09-22 20:02:00,44.4,42.4,29.44,NNW,329,4.0,7.0,93,0.00,,,0.05,meteohub,2013-09-23 02:02:00,
2013-09-22 20:07:00,44.2,42.3,29.45,NE,34,3.0,6.0,93,0.02,,,0.07,meteohub,2013-09-23 02:07:00,
2013-09-22 20:12:00,44.1,42.1,29.46,NW,326,1.0,5.0,93,0.05,,,0.10,meteohub,2013-09-23 02:12:00,
2013-09-22 20:17:00,44.1,42.1,29.47,WNW,288,2.0,5.0,93,0.07,,,0.12,meteohub,2013-09-23 02:17:00,
2013-09-22 20:22:00,44.1,42.1,29.47,NNW,333,6.0,6.0,93,0.10,,,0.15,meteohub,2013-09-23 02:22:00,
2013-09-22 20:27:00,43.9,41.9,29.48,NW,318,2.0,6.0,93,0.13,,,0.18,meteohub,2013-09-23 02:27:00,
2013-09-22 20:32:00,43.9,42.3,29.48,WSW,238,3.0,6.0,94,0.15,,,0.20,meteohub,2013-09-23 02:32:00,
2013-09-22 20:37:00,44.1,42.8,29.48,SSE,155,3.0,8.0,95,0.19,,,0.24,meteohub,2013-09-23 02:37:00,
2013-09-22 20:42:00,43.9,42.3,29.47,ESE,116,5.0,8.0,94,0.23,,,0.28,meteohub,2013-09-23 02:42:00,
2013-09-22 20:47:00,43.5,41.9,29.47,East,101,0.0,8.0,94,0.25,,,0.30,meteohub,2013-09-23 02:47:00,
2013-09-22 20:52:00,43.5,41.9,29.47,NNE,30,1.0,6.0,94,0.26,,,0.31,meteohub,2013-09-23 02:52:00,
2013-09-22 20:57:00,43.3,42.1,29.48,ENE,63,0.0,6.0,95,0.27,,,0.32,meteohub,2013-09-23 02:57:00,
2013-09-22 21:02:00,43.2,41.9,29.48,ENE,77,2.0,4.0,95,0.26,,,0.32,meteohub,2013-09-23 03:02:00,
2013-09-22 21:07:00,43.2,41.9,29.48,East,79,2.0,3.0,95,0.24,,,0.32,meteohub,2013-09-23 03:07:00,
2013-09-22 21:12:00,43.2,41.9,29.49,SSE,155,6.0,7.0,95,0.21,,,0.32,meteohub,2013-09-23 03:12:00,
2013-09-22 21:17:00,42.3,40.6,29.50,SSW,200,2.0,8.0,94,0.19,,,0.32,meteohub,2013-09-23 03:17:00,
2013-09-22 21:22:00,41.4,39.7,29.50,SSE,160,4.0,14.0,94,0.16,,,0.32,meteohub,2013-09-23 03:22:00,
2013-09-22 21:27:00,40.8,39.2,29.51,SSE,165,7.0,14.0,94,0.14,,,0.32,meteohub,2013-09-23 03:27:00,
2013-09-22 21:32:00,40.6,39.4,29.51,SE,138,6.0,14.0,95,0.11,,,0.32,meteohub,2013-09-23 03:32:00,
2013-09-22 21:37:00,40.5,39.2,29.50,SE,134,7.0,11.0,95,0.06,,,0.32,meteohub,2013-09-23 03:37:00,
2013-09-22 21:42:00,40.5,39.2,29.51,South,170,7.0,11.0,95,0.03,,,0.32,meteohub,2013-09-23 03:42:00,
2013-09-22 21:47:00,40.3,39.0,29.52,SSW,195,2.0,8.0,95,0.01,,,0.32,meteohub,2013-09-23 03:47:00,
2013-09-22 21:52:00,40.3,39.0,29.52,West,267,2.0,8.0,95,0.00,,,0.32,meteohub,2013-09-23 03:52:00,
2013-09-22 21:57:00,40.3,39.0,29.52,West,276,0.0,8.0,95,0.00,,,0.32,meteohub,2013-09-23 03:57:00,
2013-09-22 22:01:00,40.3,39.0,29.52,West,277,1.0,8.0,95,0.00,,,0.32,meteohub,2013-09-23 04:01:00,
2013-09-22 22:02:00,40.3,39.0,29.52,WSW,245,1.0,8.0,95,0.00,,,0.32,meteohub,2013-09-23 04:02:00,
2013-09-22 22:04:00,40.3,39.0,29.52,WSW,245,1.0,8.0,95,0.00,,,0.32,meteohub,2013-09-23 04:04:00,
2013-09-22 22:09:00,40.1,38.8,29.51,SSE,152,2.0,3.0,95,0.00,,,0.32,meteohub,2013-09-23 04:09:00,
2013-09-22 22:10:00,40.1,38.8,29.51,SSE,165,4.0,4.0,95,0.00,,,0.32,meteohub,2013-09-23 04:10:00,
2013-09-22 22:11:00,40.3,39.0,29.51,South,178,3.0,4.0,95,0.00,,,0.32,meteohub,2013-09-23 04:11:00,
2013-09-22 22:16:00,40.5,39.2,29.51,WNW,294,0.0,4.0,95,0.00,,,0.32,meteohub,2013-09-23 04:16:00,
2013-09-22 22:21:00,40.5,39.2,29.51,NNW,329,4.0,4.0,95,0.00,,,0.32,meteohub,2013-09-23 04:21:00,
2013-09-22 22:26:00,40.3,39.0,29.51,NW,321,1.0,5.0,95,0.00,,,0.32,meteohub,2013-09-23 04:26:00,
2013-09-22 22:31:00,40.3,39.0,29.50,NNW,333,2.0,5.0,95,0.00,,,0.32,meteohub,2013-09-23 04:31:00,
2013-09-22 22:37:00,40.5,39.2,29.49,NNW,333,4.0,6.0,95,0.00,,,0.32,meteohub,2013-09-23 04:37:00,
2013-09-22 22:42:00,40.3,39.0,29.48,NW,323,6.0,8.0,95,0.00,,,0.32,meteohub,2013-09-23 04:42:00,
2013-09-22 22:47:00,40.5,38.7,29.49,NE,50,4.0,10.0,93,0.00,,,0.32,meteohub,2013-09-23 04:47:00,
2013-09-22 22:52:00,40.6,38.5,29.50,East,83,1.0,10.0,92,0.00,,,0.32,meteohub,2013-09-23 04:52:00,
2013-09-22 22:57:00,40.8,38.7,29.50,NNE,15,5.0,10.0,92,0.00,,,0.32,meteohub,2013-09-23 04:57:00,
2013-09-22 23:02:00,40.6,38.8,29.49,NW,323,2.0,6.0,93,0.00,,,0.32,meteohub,2013-09-23 05:02:00,
2013-09-22 23:07:00,40.6,38.8,29.50,WSW,250,1.0,7.0,93,0.00,,,0.32,meteohub,2013-09-23 05:07:00,
2013-09-22 23:12:00,40.6,38.8,29.50,SE,127,1.0,7.0,93,0.00,,,0.32,meteohub,2013-09-23 05:12:00,
2013-09-22 23:17:00,40.6,38.5,29.51,ESE,115,0.0,5.0,92,0.00,,,0.32,meteohub,2013-09-23 05:17:00,
2013-09-22 23:22:00,40.8,38.7,29.51,ESE,116,0.0,2.0,92,0.00,,,0.32,meteohub,2013-09-23 05:22:00,
2013-09-22 23:27:00,40.6,38.5,29.51,SSW,211,1.0,1.0,92,0.00,,,0.32,meteohub,2013-09-23 05:27:00,
2013-09-22 23:32:00,40.6,38.8,29.52,SW,235,1.0,2.0,93,0.00,,,0.32,meteohub,2013-09-23 05:32:00,
2013-09-22 23:37:00,40.6,38.8,29.51,SW,226,3.0,3.0,93,0.00,,,0.32,meteohub,2013-09-23 05:37:00,
2013-09-22 23:42:00,40.8,39.0,29.51,SSW,212,1.0,3.0,93,0.00,,,0.32,meteohub,2013-09-23 05:42:00,
2013-09-22 23:48:00,40.6,39.0,29.51,SSW,197,1.0,3.0,94,0.00,,,0.32,meteohub,2013-09-23 05:48:00,
2013-09-22 23:53:00,40.6,38.8,29.51,SSE,158,0.0,3.0,93,0.00,,,0.32,meteohub,2013-09-23 05:53:00,
2013-09-22 23:58:00,40.8,38.5,29.50,SSE,158,0.0,3.0,91,0.00,,,0.32,meteohub,2013-09-23 05:58:00,